createdAt,value
2019-02-17T00:00:46.899Z,100983.62
2019-02-17T00:04:53.779Z,100979.16
2019-02-17T00:09:00.683Z,100978.75
2019-02-17T00:13:09.139Z,100977.55
2019-02-17T00:17:15.923Z,100977.03
2019-02-17T00:21:22.737Z,100973.25
2019-02-17T00:25:29.554Z,100970.20
2019-02-17T00:29:36.383Z,100969.59
2019-02-17T00:33:43.193Z,100969.52
2019-02-17T00:37:49.989Z,100976.14
2019-02-17T00:41:57.431Z,100967.85
2019-02-17T00:46:04.341Z,100975.25
2019-02-17T00:50:11.197Z,100967.52
2019-02-17T00:54:18.146Z,100972.63
2019-02-17T00:58:24.938Z,100972.75
2019-02-17T01:02:31.755Z,100976.73
2019-02-17T01:06:38.732Z,100978.48
2019-02-17T01:10:45.784Z,100972.46
2019-02-17T01:14:52.600Z,100973.16
2019-02-17T01:18:59.436Z,100968.59
2019-02-17T01:23:09.350Z,100970.41
2019-02-17T01:27:16.305Z,100969.69
2019-02-17T01:31:23.259Z,100972.76
2019-02-17T01:35:30.809Z,100971.16
2019-02-17T01:39:37.810Z,100963.30
2019-02-17T01:43:44.667Z,100969.91
2019-02-17T01:47:51.628Z,100964.75
2019-02-17T01:51:58.645Z,100964.36
2019-02-17T01:56:05.571Z,100969.56
2019-02-17T02:00:14.116Z,100969.95
2019-02-17T02:04:21.365Z,100958.02
2019-02-17T02:08:28.257Z,100952.19
2019-02-17T02:12:35.111Z,100952.33
2019-02-17T02:16:41.997Z,100954.80
2019-02-17T02:20:48.807Z,100955.87
2019-02-17T02:24:55.945Z,100958.34
2019-02-17T02:29:02.908Z,100951.41
2019-02-17T02:33:12.779Z,100945.28
2019-02-17T02:37:19.725Z,100949.08
2019-02-17T02:41:34.197Z,100949.74
2019-02-17T02:45:35.136Z,100939.84
2019-02-17T02:49:41.957Z,100943.80
2019-02-17T02:53:48.778Z,100942.63
2019-02-17T02:57:55.751Z,100941.66
2019-02-17T03:02:02.755Z,100935.30
2019-02-17T03:06:29.224Z,100929.45
2019-02-17T03:10:36.090Z,100924.63
2019-02-17T03:14:42.911Z,100926.73
2019-02-17T03:18:49.737Z,100929.02
2019-02-17T03:22:56.551Z,100926.30
2019-02-17T03:27:03.396Z,100922.77
2019-02-17T03:31:10.211Z,100925.05
2019-02-17T03:35:17.115Z,100926.80
2019-02-17T03:39:23.993Z,100930.23
2019-02-17T03:43:30.843Z,100936.78
2019-02-17T03:47:37.712Z,100933.10
2019-02-17T03:51:45.661Z,100933.01
2019-02-17T03:55:52.542Z,100933.24
2019-02-17T03:59:59.358Z,100940.27
2019-02-17T04:04:06.216Z,100941.14
2019-02-17T04:08:13.067Z,100943.42
2019-02-17T04:12:19.860Z,100938.91
2019-02-17T04:16:26.688Z,100932.64
2019-02-17T04:20:33.498Z,100927.62
2019-02-17T04:24:40.348Z,100929.85
2019-02-17T04:28:47.165Z,100932.13
2019-02-17T04:32:54.097Z,100928.99
2019-02-17T04:37:01.308Z,100924.48
2019-02-17T04:41:08.175Z,100930.09
2019-02-17T04:45:15.046Z,100931.36
2019-02-17T04:49:21.892Z,100934.47
2019-02-17T04:53:28.898Z,100924.64
2019-02-17T04:57:35.735Z,100917.23
2019-02-17T05:01:42.846Z,100917.25
2019-02-17T05:05:49.767Z,100918.96
2019-02-17T05:09:57.626Z,100912.36
2019-02-17T05:14:04.501Z,100914.75
2019-02-17T05:18:11.398Z,100913.30
2019-02-17T05:22:18.387Z,100917.98
2019-02-17T05:26:25.260Z,100916.08
2019-02-17T05:30:32.149Z,100913.70
2019-02-17T05:34:38.989Z,100913.10
2019-02-17T05:38:45.945Z,100909.53
2019-02-17T05:42:52.908Z,100910.01
2019-02-17T05:46:59.908Z,100917.00
2019-02-17T05:51:07.843Z,100913.78
2019-02-17T05:55:14.748Z,100915.93
2019-02-17T05:59:21.648Z,100907.27
2019-02-17T06:03:28.641Z,100907.41
2019-02-17T06:07:35.703Z,100909.16
2019-02-17T06:11:42.594Z,100917.83
2019-02-17T06:15:49.580Z,100919.85
2019-02-17T06:19:56.368Z,100921.64
2019-02-17T06:24:03.317Z,100918.33
2019-02-17T06:28:10.200Z,100916.43
2019-02-17T06:32:17.086Z,100915.63
2019-02-17T06:36:24.015Z,100931.19
2019-02-17T06:40:30.921Z,100935.25
2019-02-17T06:44:37.887Z,100934.78
2019-02-17T06:48:44.784Z,100943.25
2019-02-17T06:52:51.624Z,100944.91
2019-02-17T06:57:17.248Z,100946.84
2019-02-17T07:01:25.011Z,100942.67
2019-02-17T07:05:57.205Z,100944.80
2019-02-17T07:10:04.245Z,100942.89
2019-02-17T07:14:11.170Z,100949.67
2019-02-17T07:18:18.068Z,100941.72
2019-02-17T07:22:24.938Z,100941.11
2019-02-17T07:26:31.784Z,100945.02
2019-02-17T07:30:38.589Z,100945.98
2019-02-17T07:34:45.466Z,100942.19
2019-02-17T07:38:52.443Z,100939.10
2019-02-17T07:42:59.505Z,100943.15
2019-02-17T07:47:06.419Z,100948.85
2019-02-17T07:51:13.376Z,100948.84
2019-02-17T07:55:20.315Z,100945.89
2019-02-17T07:59:27.736Z,100952.42
2019-02-17T08:03:34.688Z,100951.80
2019-02-17T08:07:41.615Z,100950.46
2019-02-17T08:11:56.262Z,100953.70
2019-02-17T08:16:03.921Z,100953.61
2019-02-17T08:20:11.129Z,100951.34
2019-02-17T08:24:17.970Z,100952.43
2019-02-17T08:28:24.820Z,100944.62
2019-02-17T08:32:31.771Z,100955.27
2019-02-17T08:36:38.883Z,100945.44
2019-02-17T08:40:45.830Z,100957.30
2019-02-17T08:44:52.695Z,100954.34
2019-02-17T08:48:59.587Z,100950.93
2019-02-17T08:53:06.460Z,100949.42
2019-02-17T08:57:13.451Z,100950.83
2019-02-17T09:01:20.554Z,100953.94
2019-02-17T09:05:27.576Z,100951.03
2019-02-17T09:09:34.507Z,100956.11
2019-02-17T09:13:42.641Z,100947.41
2019-02-17T09:17:50.886Z,100950.34
2019-02-17T09:21:58.859Z,100951.18
2019-02-17T09:26:06.661Z,100947.83
2019-02-17T09:30:16.886Z,100946.60
2019-02-17T09:34:25.430Z,100938.15
2019-02-17T09:38:32.509Z,100937.09
2019-02-17T09:42:39.817Z,100932.55
2019-02-17T09:46:46.849Z,100928.39
2019-02-17T09:50:53.848Z,100929.02
2019-02-17T09:55:00.924Z,100933.03
2019-02-17T09:59:07.793Z,100920.94
2019-02-17T10:03:26.651Z,100925.84
2019-02-17T10:07:33.963Z,100928.63
2019-02-17T10:11:40.951Z,100918.33
2019-02-17T10:15:51.620Z,100919.95
2019-02-17T10:19:59.318Z,100918.83
2019-02-17T10:24:06.345Z,100921.80
2019-02-17T10:28:14.024Z,100925.35
2019-02-17T10:32:20.983Z,100922.92
2019-02-17T10:36:27.928Z,100918.81
2019-02-17T10:40:37.161Z,100927.25
2019-02-17T10:44:44.702Z,100918.57
2019-02-17T10:48:51.665Z,100924.63
2019-02-17T10:52:58.749Z,100919.36
2019-02-17T10:57:06.733Z,100916.77
2019-02-17T11:01:13.848Z,100904.58
2019-02-17T11:05:22.880Z,100901.90
2019-02-17T11:09:29.807Z,100899.80
2019-02-17T11:13:36.700Z,100890.91
2019-02-17T11:17:43.739Z,100883.38
2019-02-17T11:21:50.638Z,100881.43
2019-02-17T11:25:59.040Z,100867.00
2019-02-17T11:30:08.326Z,100865.99
2019-02-17T11:34:15.294Z,100861.99
2019-02-17T11:38:22.361Z,100855.43
2019-02-17T11:42:29.379Z,100853.61
2019-02-17T11:46:36.653Z,100845.97
2019-02-17T11:50:43.815Z,100843.15
2019-02-17T11:54:52.365Z,100836.29
2019-02-17T11:58:59.541Z,100829.55
2019-02-17T12:03:08.325Z,100823.09
2019-02-17T12:07:15.202Z,100823.98
2019-02-17T12:11:24.469Z,100816.15
2019-02-17T12:15:31.358Z,100808.50
2019-02-17T12:19:38.237Z,100805.77
2019-02-17T12:23:48.814Z,100803.47
2019-02-17T12:28:09.305Z,100795.17
2019-02-17T12:32:31.318Z,100795.11
2019-02-17T12:36:38.374Z,100791.38
2019-02-17T12:40:45.409Z,100786.03
2019-02-17T12:44:52.490Z,100780.57
2019-02-17T12:48:59.385Z,100776.31
2019-02-17T12:53:06.305Z,100775.92
2019-02-17T12:57:13.253Z,100772.72
2019-02-17T13:01:20.220Z,100764.94
2019-02-17T13:05:27.150Z,100763.73
2019-02-17T13:09:34.151Z,100755.52
2019-02-17T13:13:41.121Z,100750.12
2019-02-17T13:17:48.056Z,100743.89
2019-02-17T13:21:54.931Z,100738.27
2019-02-17T13:26:01.815Z,100742.70
2019-02-17T13:30:16.812Z,100730.20
2019-02-17T13:34:23.954Z,100721.38
2019-02-17T13:38:30.984Z,100722.20
2019-02-17T13:42:37.857Z,100713.48
2019-02-17T13:46:44.900Z,100713.88
2019-02-17T13:50:51.917Z,100707.73
2019-02-17T13:54:58.921Z,100700.70
2019-02-17T13:59:05.894Z,100698.11
2019-02-17T14:03:12.788Z,100689.68
2019-02-17T14:07:19.840Z,100688.47
2019-02-17T14:11:26.866Z,100678.00
2019-02-17T14:15:34.028Z,100680.00
2019-02-17T14:19:40.918Z,100673.31
2019-02-17T14:23:48.009Z,100669.82
2019-02-17T14:27:55.882Z,100660.23
2019-02-17T14:32:03.358Z,100661.09
2019-02-17T14:36:10.535Z,100657.55
2019-02-17T14:40:17.555Z,100652.01
2019-02-17T14:44:24.452Z,100647.16
2019-02-17T14:48:32.806Z,100644.34
2019-02-17T14:52:40.117Z,100640.34
2019-02-17T14:56:47.071Z,100636.52
2019-02-17T15:00:54.056Z,100642.02
2019-02-17T15:05:01.207Z,100635.36
2019-02-17T15:09:09.900Z,100621.96
2019-02-17T15:13:24.385Z,100620.28
2019-02-17T15:17:27.300Z,100618.30
2019-02-17T15:21:34.550Z,100619.10
2019-02-17T15:25:41.885Z,100610.00
2019-02-17T15:29:49.192Z,100605.08
2019-02-17T15:33:57.514Z,100608.10
2019-02-17T15:38:04.911Z,100602.06
2019-02-17T15:42:14.610Z,100602.23
2019-02-17T15:46:21.770Z,100601.73
2019-02-17T15:50:29.053Z,100600.66
2019-02-17T15:54:36.312Z,100593.59
2019-02-17T15:58:44.960Z,100588.17
2019-02-17T16:02:52.336Z,100576.52
2019-02-17T16:06:59.578Z,100567.66
2019-02-17T16:11:06.689Z,100571.20
2019-02-17T16:15:15.671Z,100576.56
2019-02-17T16:19:22.839Z,100565.27
2019-02-17T16:23:29.778Z,100560.77
2019-02-17T16:27:38.299Z,100557.66
2019-02-17T16:31:45.391Z,100564.80
2019-02-17T16:35:55.345Z,100557.62
2019-02-17T16:40:02.426Z,100555.05
2019-02-17T16:44:16.211Z,100557.24
2019-02-17T16:48:25.931Z,100552.06
2019-02-17T16:52:33.004Z,100562.23
2019-02-17T16:56:42.057Z,100566.45
2019-02-17T17:00:49.013Z,100567.81
2019-02-17T17:04:57.402Z,100573.33
2019-02-17T17:09:05.442Z,100574.04
2019-02-17T17:13:13.966Z,100571.24
2019-02-17T17:17:20.846Z,100579.39
2019-02-17T17:21:27.782Z,100583.02
2019-02-17T17:25:44.966Z,100577.27
2019-02-17T17:29:50.840Z,100572.98
2019-02-17T17:34:02.151Z,100585.22
2019-02-17T17:38:12.440Z,100580.75
2019-02-17T17:42:21.661Z,100574.23
2019-02-17T17:46:28.831Z,100584.56
2019-02-17T17:50:38.373Z,100580.02
2019-02-17T17:54:46.200Z,100580.45
2019-02-17T17:59:03.615Z,100582.33
2019-02-17T18:03:10.875Z,100583.19
2019-02-17T18:07:17.875Z,100573.15
2019-02-17T18:11:24.763Z,100579.89
2019-02-17T18:15:31.676Z,100584.02
2019-02-17T18:19:38.754Z,100584.17
2019-02-17T18:23:46.679Z,100592.20
2019-02-17T18:27:53.663Z,100592.59
2019-02-17T18:32:00.609Z,100597.38
2019-02-17T18:36:10.525Z,100599.12
2019-02-17T18:40:17.695Z,100596.22
2019-02-17T18:44:24.849Z,100599.13
2019-02-17T18:48:35.948Z,100600.20
2019-02-17T18:52:42.768Z,100606.78
2019-02-17T18:56:49.720Z,100606.36
2019-02-17T19:00:57.238Z,100604.35
2019-02-17T19:05:04.313Z,100604.78
2019-02-17T19:09:11.565Z,100608.14
2019-02-17T19:13:18.714Z,100609.17
2019-02-17T19:17:25.700Z,100613.06
2019-02-17T19:21:33.122Z,100606.81
2019-02-17T19:25:40.259Z,100608.88
2019-02-17T19:29:47.298Z,100606.92
2019-02-17T19:33:54.216Z,100605.99
2019-02-17T19:38:01.104Z,100605.99
2019-02-17T19:42:07.995Z,100597.39
2019-02-17T19:46:14.942Z,100599.27
2019-02-17T19:50:22.186Z,100598.77
2019-02-17T19:54:29.158Z,100597.16
2019-02-17T19:58:36.123Z,100602.14
2019-02-17T20:03:06.468Z,100601.34
2019-02-17T20:07:13.525Z,100602.42
2019-02-17T20:11:20.446Z,100608.88
2019-02-17T20:15:31.159Z,100609.44
2019-02-17T20:19:43.394Z,100610.34
2019-02-17T20:23:52.984Z,100607.07
2019-02-17T20:28:01.235Z,100606.47
2019-02-17T20:32:09.487Z,100617.03
2019-02-17T20:36:16.625Z,100615.39
2019-02-17T20:40:23.647Z,100614.44
2019-02-17T20:44:32.259Z,100622.36
2019-02-17T20:48:39.597Z,100626.17
2019-02-17T20:52:46.567Z,100623.20
2019-02-17T20:56:53.673Z,100613.33
2019-02-17T21:01:00.551Z,100615.14
2019-02-17T21:05:07.947Z,100609.55
2019-02-17T21:09:15.540Z,100604.59
2019-02-17T21:13:22.659Z,100599.98
2019-02-17T21:17:29.629Z,100598.49
2019-02-17T21:21:36.494Z,100598.03
2019-02-17T21:25:43.316Z,100599.02
2019-02-17T21:29:50.263Z,100600.48
2019-02-17T21:33:57.220Z,100603.97
2019-02-17T21:38:04.180Z,100605.28
2019-02-17T21:42:11.174Z,100606.59
2019-02-17T21:46:18.111Z,100602.31
2019-02-17T21:50:25.100Z,100599.03
2019-02-17T21:54:32.080Z,100601.16
2019-02-17T21:58:40.749Z,100601.98
2019-02-17T22:02:53.353Z,100597.88
2019-02-17T22:07:01.973Z,100599.69
2019-02-17T22:11:16.619Z,100598.20
2019-02-17T22:15:29.676Z,100602.64
2019-02-17T22:19:36.956Z,100601.00
2019-02-17T22:23:44.187Z,100595.22
2019-02-17T22:27:51.176Z,100594.24
2019-02-17T22:31:58.209Z,100592.09
2019-02-17T22:36:05.159Z,100586.83
2019-02-17T22:40:12.323Z,100587.64
2019-02-17T22:44:19.450Z,100584.48
2019-02-17T22:48:27.439Z,100583.19
2019-02-17T22:52:34.395Z,100585.48
2019-02-17T22:56:42.777Z,100584.47
2019-02-17T23:01:01.041Z,100578.38
2019-02-17T23:05:09.671Z,100576.08
2019-02-17T23:09:16.819Z,100585.47
2019-02-17T23:13:23.797Z,100579.03
2019-02-17T23:17:31.228Z,100583.14
2019-02-17T23:21:38.170Z,100578.33
2019-02-17T23:25:50.320Z,100580.12
2019-02-17T23:29:55.643Z,100581.73
2019-02-17T23:34:03.253Z,100581.62
2019-02-17T23:38:10.243Z,100587.02
2019-02-17T23:42:17.209Z,100585.08
2019-02-17T23:46:24.125Z,100585.87
2019-02-17T23:50:30.988Z,100585.84
2019-02-17T23:54:37.804Z,100592.32
2019-02-17T23:58:44.635Z,100590.38
